Time;durP1;ratioP1;P1;durP2;ratioP2;P2;SDS_P1;SDS_P2;PMS_P1;PMS_P2;Temp;Humidity;BMP_temperature;BMP_pressure;BME280_temperature;BME280_humidity;BME280_pressure;Samples;Min_cycle;Max_cycle;Signal;HPM_P1;HPM_P2
2023/11/10 00:00:13;;;;;;;1.48;0.70;;;10.10;81.80;;;;;;5060498;28;20033;-63
2023/11/10 00:02:40;;;;;;;1.48;0.90;;;10.10;81.60;;;;;;5058997;28;20056;-63
2023/11/10 00:05:06;;;;;;;1.73;0.90;;;10.10;81.60;;;;;;5058916;28;20031;-62
2023/11/10 00:07:32;;;;;;;0.60;0.60;;;10.10;81.80;;;;;;5046165;28;20047;-62
2023/11/10 00:09:58;;;;;;;1.08;0.85;;;10.10;81.90;;;;;;5045093;28;20033;-63
2023/11/10 00:12:24;;;;;;;6.60;1.20;;;10.10;81.80;;;;;;5054381;28;20401;-62
2023/11/10 00:14:49;;;;;;;0.82;0.82;;;10.10;81.60;;;;;;5060384;28;20803;-62
2023/11/10 00:17:17;;;;;;;1.08;0.98;;;10.20;81.70;;;;;;5055276;28;20104;-63
2023/11/10 00:19:43;;;;;;;2.30;0.98;;;10.20;81.60;;;;;;5053958;28;20055;-62
2023/11/10 00:22:09;;;;;;;2.17;1.10;;;10.20;81.60;;;;;;5065278;28;20036;-62
2023/11/10 00:24:39;;;;;;;1.15;0.75;;;10.10;81.60;;;;;;5044098;28;20063;-63
2023/11/10 00:27:09;;;;;;;1.63;1.02;;;10.10;81.60;;;;;;5062738;28;20020;-63
2023/11/10 00:29:42;;;;;;;0.93;0.68;;;10.10;81.70;;;;;;5061209;28;20043;-62
2023/11/10 00:32:09;;;;;;;2.47;1.00;;;10.10;81.80;;;;;;5054817;28;20029;-62
2023/11/10 00:34:36;;;;;;;2.25;0.90;;;10.10;81.70;;;;;;5064959;28;20078;-62
2023/11/10 00:37:02;;;;;;;1.27;1.10;;;10.10;81.90;;;;;;5060058;28;20442;-63
2023/11/10 00:39:28;;;;;;;1.63;1.05;;;10.10;82.50;;;;;;5061453;28;20465;-63
2023/11/10 00:41:54;;;;;;;1.15;0.90;;;10.10;82.00;;;;;;5060640;28;20091;-64
2023/11/10 00:44:19;;;;;;;2.00;0.82;;;10.10;82.00;;;;;;5064142;28;20465;-62
2023/11/10 00:46:45;;;;;;;1.92;1.17;;;10.10;82.10;;;;;;5063032;28;20036;-62
2023/11/10 00:49:10;;;;;;;1.58;1.00;;;10.10;82.00;;;;;;5047329;28;20036;-63
2023/11/10 00:51:36;;;;;;;1.00;0.77;;;10.10;82.00;;;;;;5049199;28;20021;-62
2023/11/10 00:54:03;;;;;;;2.25;1.23;;;10.20;82.10;;;;;;5051781;28;20468;-63
2023/11/10 00:56:29;;;;;;;3.70;0.98;;;10.20;82.00;;;;;;5056133;28;20554;-62
2023/11/10 00:58:58;;;;;;;3.13;0.90;;;10.10;81.90;;;;;;5049708;28;20028;-63
2023/11/10 01:01:24;;;;;;;2.22;1.10;;;10.20;82.00;;;;;;5071490;28;20381;-63
2023/11/10 01:03:50;;;;;;;3.28;0.90;;;10.20;82.00;;;;;;5068849;28;20041;-62
2023/11/10 01:06:15;;;;;;;1.63;1.15;;;10.20;81.90;;;;;;5070047;28;20108;-62
2023/11/10 01:08:41;;;;;;;1.55;1.13;;;10.20;81.80;;;;;;5049483;28;20538;-62
2023/11/10 01:11:07;;;;;;;2.70;0.88;;;10.20;81.70;;;;;;5066404;28;20028;-63
2023/11/10 01:13:34;;;;;;;0.82;0.80;;;10.20;81.90;;;;;;5065883;28;20436;-62
2023/11/10 01:16:01;;;;;;;3.45;0.80;;;10.20;81.90;;;;;;5067556;28;20373;-63
2023/11/10 01:18:27;;;;;;;2.63;0.60;;;10.20;81.90;;;;;;5067621;28;20093;-62
2023/11/10 01:20:54;;;;;;;0.68;0.60;;;10.20;81.80;;;;;;5063291;28;20032;-62
2023/11/10 01:23:20;;;;;;;0.88;0.88;;;10.20;81.80;;;;;;5063900;28;20033;-62
2023/11/10 01:25:47;;;;;;;1.58;0.95;;;10.20;81.80;;;;;;5062025;28;20031;-62
2023/11/10 01:28:13;;;;;;;1.05;0.70;;;10.20;81.80;;;;;;5062297;28;20677;-63
2023/11/10 01:30:38;;;;;;;0.98;0.88;;;10.20;81.90;;;;;;5048004;28;20035;-63
2023/11/10 01:33:07;;;;;;;5.10;1.35;;;10.20;81.90;;;;;;5063769;28;20158;-62
2023/11/10 01:35:33;;;;;;;2.95;0.82;;;10.20;81.90;;;;;;5060316;28;20389;-62
2023/11/10 01:37:58;;;;;;;2.88;0.90;;;10.20;81.90;;;;;;5068073;28;20123;-63
2023/11/10 01:40:24;;;;;;;0.50;0.47;;;10.20;81.90;;;;;;5025202;28;20155;-62
2023/11/10 01:42:50;;;;;;;0.50;0.50;;;10.20;81.80;;;;;;5050697;28;20055;-63
2023/11/10 01:45:17;;;;;;;1.10;0.52;;;10.20;82.00;;;;;;5046101;28;20055;-63
2023/11/10 01:47:45;;;;;;;0.65;0.65;;;10.20;82.00;;;;;;5061749;28;20052;-63
2023/11/10 01:50:11;;;;;;;1.38;1.02;;;10.30;82.00;;;;;;5066997;28;20552;-65
2023/11/10 01:52:41;;;;;;;1.40;0.68;;;10.30;82.40;;;;;;5061784;28;20032;-65
2023/11/10 01:55:12;;;;;;;1.30;0.88;;;10.30;81.80;;;;;;5062142;28;20036;-63
2023/11/10 01:57:38;;;;;;;1.38;0.55;;;10.30;81.60;;;;;;5059151;28;20028;-64
2023/11/10 02:00:04;;;;;;;1.35;0.70;;;10.30;81.60;;;;;;5065103;28;20040;-63
2023/11/10 02:02:31;;;;;;;4.00;0.77;;;10.30;81.60;;;;;;5066909;28;20525;-63
2023/11/10 02:04:57;;;;;;;1.67;0.77;;;10.30;81.50;;;;;;5067300;28;20029;-65
2023/11/10 02:07:23;;;;;;;0.63;0.40;;;10.30;81.40;;;;;;5046620;28;20036;-65
2023/11/10 02:09:49;;;;;;;1.40;0.80;;;10.20;81.30;;;;;;5064269;28;20033;-63
2023/11/10 02:12:15;;;;;;;1.98;0.55;;;10.20;81.40;;;;;;5068306;28;20103;-63
2023/11/10 02:14:41;;;;;;;0.65;0.60;;;10.30;81.60;;;;;;5065386;28;20037;-63
2023/11/10 02:17:06;;;;;;;0.55;0.55;;;10.30;81.60;;;;;;5066335;28;20415;-63
2023/11/10 02:19:33;;;;;;;0.82;0.68;;;10.30;81.50;;;;;;5056579;28;20048;-63
2023/11/10 02:21:59;;;;;;;0.98;0.50;;;10.30;81.50;;;;;;5059005;28;20051;-65
2023/11/10 02:24:27;;;;;;;0.82;0.60;;;10.30;81.40;;;;;;5060614;28;20036;-65
2023/11/10 02:26:53;;;;;;;8.18;0.77;;;10.30;81.30;;;;;;5045499;28;20021;-65
2023/11/10 02:29:18;;;;;;;1.45;0.73;;;10.30;81.30;;;;;;5061319;28;20409;-65
2023/11/10 02:31:44;;;;;;;2.05;0.40;;;10.30;81.30;;;;;;5058120;28;20025;-64
2023/11/10 02:34:10;;;;;;;1.83;1.05;;;10.40;81.10;;;;;;5056545;28;20384;-65
2023/11/10 02:36:37;;;;;;;0.55;0.50;;;10.40;81.10;;;;;;5067773;28;20031;-65
2023/11/10 02:39:04;;;;;;;0.68;0.65;;;10.40;81.10;;;;;;5062324;28;20021;-65
2023/11/10 02:41:30;;;;;;;0.75;0.63;;;10.40;81.00;;;;;;5060300;28;20488;-65
2023/11/10 02:43:56;;;;;;;1.95;0.77;;;10.40;80.90;;;;;;5060734;28;20044;-65
2023/11/10 02:46:21;;;;;;;1.08;0.90;;;10.40;81.00;;;;;;5058193;28;20404;-65
2023/11/10 02:48:47;;;;;;;0.93;0.57;;;10.40;80.90;;;;;;5063890;28;20029;-65
2023/11/10 02:51:13;;;;;;;2.65;1.17;;;10.40;81.10;;;;;;5065167;28;20032;-65
2023/11/10 02:53:39;;;;;;;1.55;0.90;;;10.30;81.00;;;;;;5062990;28;20075;-65
2023/11/10 02:56:06;;;;;;;0.57;0.55;;;10.40;81.10;;;;;;5063741;28;20036;-65
2023/11/10 02:58:33;;;;;;;0.85;0.50;;;10.30;81.00;;;;;;5066734;28;20063;-65
2023/11/10 03:00:59;;;;;;;4.10;1.08;;;10.40;81.00;;;;;;5065727;28;20046;-65
2023/11/10 03:03:25;;;;;;;2.38;0.80;;;10.40;81.00;;;;;;5048063;28;20044;-65
2023/11/10 03:05:52;;;;;;;0.60;0.60;;;10.40;80.70;;;;;;5063563;28;20032;-65
2023/11/10 03:08:17;;;;;;;1.15;0.55;;;10.40;80.70;;;;;;5067537;28;20035;-65
2023/11/10 03:10:43;;;;;;;0.68;0.68;;;10.40;80.80;;;;;;5048812;28;20111;-65
2023/11/10 03:13:10;;;;;;;1.58;0.50;;;10.40;80.90;;;;;;5063096;28;20029;-65
2023/11/10 03:15:37;;;;;;;2.65;0.80;;;10.40;80.80;;;;;;5062950;28;20045;-65
2023/11/10 03:18:03;;;;;;;1.75;0.82;;;10.40;80.70;;;;;;5065195;28;20021;-65
2023/11/10 03:20:29;;;;;;;0.70;0.70;;;10.40;80.80;;;;;;5062011;28;20396;-65
2023/11/10 03:22:55;;;;;;;1.33;0.60;;;10.40;80.90;;;;;;5062395;28;20021;-65
2023/11/10 03:25:21;;;;;;;0.82;0.60;;;10.40;80.80;;;;;;5045502;28;20472;-65
2023/11/10 03:27:47;;;;;;;0.93;0.80;;;10.40;80.40;;;;;;5062881;28;20036;-65
2023/11/10 03:30:13;;;;;;;0.57;0.57;;;10.40;80.40;;;;;;5066312;28;20032;-65
2023/11/10 03:32:39;;;;;;;3.17;0.88;;;10.40;80.40;;;;;;5059100;28;20032;-65
2023/11/10 03:35:06;;;;;;;0.47;0.47;;;10.40;80.50;;;;;;5063531;28;20028;-65
2023/11/10 03:37:32;;;;;;;0.60;0.60;;;10.40;80.60;;;;;;5061930;28;20033;-65
2023/11/10 03:39:57;;;;;;;0.55;0.50;;;10.40;80.60;;;;;;5065449;28;20036;-65
2023/11/10 03:42:23;;;;;;;0.93;0.55;;;10.40;80.40;;;;;;5065229;28;20040;-64
2023/11/10 03:44:48;;;;;;;0.75;0.63;;;10.40;80.40;;;;;;5066035;28;20416;-65
2023/11/10 03:47:14;;;;;;;3.47;1.00;;;10.40;80.40;;;;;;5059074;28;20056;-64
2023/11/10 03:49:40;;;;;;;1.08;0.88;;;10.40;80.40;;;;;;5044495;28;20028;-64
2023/11/10 03:52:07;;;;;;;1.10;0.60;;;10.40;80.40;;;;;;5055242;28;20478;-64
2023/11/10 03:54:32;;;;;;;1.50;0.70;;;10.40;80.40;;;;;;5059332;28;20101;-64
2023/11/10 03:56:58;;;;;;;1.02;0.68;;;10.50;80.40;;;;;;5057544;28;20314;-65
2023/11/10 03:59:24;;;;;;;0.57;0.40;;;10.50;80.20;;;;;;5056520;28;20033;-65
2023/11/10 04:01:50;;;;;;;0.47;0.45;;;10.40;80.20;;;;;;5057899;28;20074;-65
2023/11/10 04:04:16;;;;;;;0.63;0.63;;;10.40;80.20;;;;;;5061721;28;20493;-65
2023/11/10 04:06:41;;;;;;;1.02;0.65;;;10.40;80.10;;;;;;5057307;28;20072;-65
2023/11/10 04:09:08;;;;;;;3.17;0.60;;;10.40;80.10;;;;;;5061973;28;20033;-63
2023/11/10 04:11:34;;;;;;;0.30;0.30;;;10.40;80.00;;;;;;5048368;28;20025;-63
2023/11/10 04:13:59;;;;;;;1.35;0.52;;;10.40;79.90;;;;;;5061486;28;20060;-64
2023/11/10 04:16:25;;;;;;;1.25;0.90;;;10.40;80.60;;;;;;5041169;28;20036;-63
2023/11/10 04:18:53;;;;;;;0.57;0.43;;;10.40;80.00;;;;;;5062938;28;20104;-63
2023/11/10 04:21:20;;;;;;;5.57;0.90;;;10.40;79.90;;;;;;5055449;28;20052;-63
2023/11/10 04:23:46;;;;;;;1.20;0.50;;;10.40;79.80;;;;;;5055951;28;20033;-63
2023/11/10 04:26:13;;;;;;;1.45;0.35;;;10.40;79.70;;;;;;5053533;28;20127;-63
2023/11/10 04:28:39;;;;;;;0.65;0.60;;;10.30;79.60;;;;;;5062718;28;20112;-63
2023/11/10 04:31:05;;;;;;;2.53;0.73;;;10.20;79.80;;;;;;5051965;28;20096;-63
2023/11/10 04:33:31;;;;;;;0.38;0.38;;;10.30;79.80;;;;;;5025607;28;20497;-63
2023/11/10 04:35:57;;;;;;;0.73;0.60;;;10.30;79.60;;;;;;5063200;28;20060;-63
2023/11/10 04:38:25;;;;;;;0.70;0.60;;;10.30;79.80;;;;;;5065155;28;20114;-63
2023/11/10 04:40:51;;;;;;;3.15;0.75;;;10.30;79.70;;;;;;5056602;28;20074;-63
2023/11/10 04:43:17;;;;;;;1.42;0.70;;;10.30;79.60;;;;;;5067383;28;20033;-63
2023/11/10 04:45:43;;;;;;;0.68;0.50;;;10.30;79.60;;;;;;5067683;28;20017;-63
2023/11/10 04:48:08;;;;;;;0.45;0.40;;;10.20;79.50;;;;;;5061630;28;20105;-63
2023/11/10 04:50:34;;;;;;;3.83;0.50;;;10.20;79.60;;;;;;5062263;28;20039;-62
2023/11/10 04:53:00;;;;;;;0.95;0.70;;;10.30;79.70;;;;;;5065617;28;20107;-62
2023/11/10 04:55:25;;;;;;;3.78;0.95;;;10.30;79.50;;;;;;5044912;28;20029;-61
2023/11/10 04:57:51;;;;;;;1.10;0.63;;;10.30;79.50;;;;;;5063141;28;20140;-62
2023/11/10 05:00:17;;;;;;;0.55;0.50;;;10.30;79.60;;;;;;5062182;28;20028;-62
2023/11/10 05:02:46;;;;;;;3.75;0.80;;;10.30;79.50;;;;;;5059286;28;20052;-61
2023/11/10 05:05:15;;;;;;;0.90;0.68;;;10.30;79.40;;;;;;5037347;28;20036;-62
2023/11/10 05:07:41;;;;;;;0.73;0.50;;;10.30;79.50;;;;;;5046620;28;20041;-62
2023/11/10 05:10:08;;;;;;;1.98;0.77;;;10.30;79.60;;;;;;5061314;28;20532;-62
2023/11/10 05:12:36;;;;;;;0.60;0.60;;;10.30;79.70;;;;;;5061399;28;20688;-62
2023/11/10 05:15:05;;;;;;;5.28;0.95;;;10.30;79.60;;;;;;5064811;28;20052;-62
2023/11/10 05:17:35;;;;;;;1.23;0.52;;;10.30;79.50;;;;;;5061228;28;20095;-62
2023/11/10 05:20:02;;;;;;;0.95;0.40;;;10.40;79.70;;;;;;5065251;28;20509;-63
2023/11/10 05:22:31;;;;;;;0.57;0.57;;;10.40;79.50;;;;;;5044612;28;20441;-62
2023/11/10 05:24:57;;;;;;;0.65;0.45;;;10.30;79.50;;;;;;5062029;28;20776;-62
2023/11/10 05:27:23;;;;;;;0.60;0.60;;;10.30;79.50;;;;;;5044394;28;20063;-62
2023/11/10 05:29:49;;;;;;;0.77;0.50;;;10.40;79.60;;;;;;5056478;28;20120;-62
2023/11/10 05:32:14;;;;;;;1.45;0.77;;;10.40;79.50;;;;;;5048292;28;20024;-62
2023/11/10 05:34:40;;;;;;;0.65;0.65;;;10.30;79.50;;;;;;5060671;28;20037;-62
2023/11/10 05:37:10;;;;;;;1.40;0.82;;;10.30;79.50;;;;;;5064974;28;20055;-64
2023/11/10 05:39:36;;;;;;;2.03;0.85;;;10.40;79.60;;;;;;5059228;28;20512;-64
2023/11/10 05:42:02;;;;;;;2.35;0.40;;;10.40;79.70;;;;;;5048408;28;20086;-64
2023/11/10 05:44:28;;;;;;;0.70;0.57;;;10.40;79.50;;;;;;5057877;28;20488;-64
2023/11/10 05:46:54;;;;;;;0.73;0.40;;;10.30;79.30;;;;;;5067503;28;20111;-64
2023/11/10 05:49:19;;;;;;;0.57;0.40;;;10.30;79.50;;;;;;5039502;28;20050;-64
2023/11/10 05:51:46;;;;;;;1.27;0.68;;;10.30;79.50;;;;;;5056234;28;20025;-64
2023/11/10 05:54:13;;;;;;;0.40;0.40;;;10.30;79.40;;;;;;5067938;28;20067;-64
2023/11/10 05:56:39;;;;;;;2.92;0.52;;;10.40;79.60;;;;;;5069015;28;20029;-64
2023/11/10 05:59:04;;;;;;;1.75;0.60;;;10.30;79.40;;;;;;5062535;28;20062;-64
2023/11/10 06:01:30;;;;;;;0.85;0.68;;;10.30;79.50;;;;;;5063475;28;20111;-63
2023/11/10 06:03:56;;;;;;;0.73;0.63;;;10.30;79.50;;;;;;5067560;28;20438;-64
2023/11/10 06:06:24;;;;;;;2.22;0.50;;;10.30;79.50;;;;;;5036148;28;20029;-64
2023/11/10 06:08:50;;;;;;;0.47;0.45;;;10.30;79.60;;;;;;5036557;28;20029;-64
2023/11/10 06:11:20;;;;;;;2.00;0.40;;;10.30;79.50;;;;;;5065748;28;20031;-64
2023/11/10 06:13:47;;;;;;;0.73;0.55;;;10.20;79.40;;;;;;5063845;28;20028;-65
2023/11/10 06:16:13;;;;;;;1.35;1.10;;;10.20;79.60;;;;;;5050413;28;20043;-64
2023/11/10 06:18:39;;;;;;;1.55;0.75;;;10.20;79.60;;;;;;5043911;28;20111;-64
2023/11/10 06:21:04;;;;;;;0.85;0.55;;;10.30;79.60;;;;;;5060901;28;20032;-64
2023/11/10 06:23:30;;;;;;;1.98;1.02;;;10.30;79.50;;;;;;5063139;28;20337;-64
2023/11/10 06:25:56;;;;;;;0.55;0.55;;;10.30;79.50;;;;;;5035819;28;20508;-64
2023/11/10 06:28:22;;;;;;;0.75;0.47;;;10.20;79.60;;;;;;5038771;28;20481;-64
2023/11/10 06:30:47;;;;;;;1.95;0.70;;;10.20;79.60;;;;;;5064556;28;20063;-64
2023/11/10 06:33:13;;;;;;;0.43;0.40;;;10.20;79.60;;;;;;5041104;28;20036;-64
2023/11/10 06:35:39;;;;;;;0.45;0.40;;;10.20;79.60;;;;;;5044537;28;20047;-63
2023/11/10 06:38:04;;;;;;;1.80;0.70;;;10.10;79.80;;;;;;5062263;28;20064;-62
2023/11/10 06:40:30;;;;;;;0.73;0.60;;;10.10;79.80;;;;;;5061338;28;20052;-63
2023/11/10 06:42:56;;;;;;;0.30;0.30;;;10.00;79.70;;;;;;5060975;28;20477;-63
2023/11/10 06:45:21;;;;;;;2.92;0.60;;;10.00;80.00;;;;;;5063145;28;20025;-63
2023/11/10 06:47:47;;;;;;;3.60;0.75;;;9.90;80.00;;;;;;5039575;28;20112;-63
2023/11/10 06:50:13;;;;;;;4.13;1.05;;;9.90;80.10;;;;;;5056734;28;20025;-63
2023/11/10 06:52:38;;;;;;;0.50;0.40;;;9.80;80.10;;;;;;5045625;28;20025;-63
2023/11/10 06:55:04;;;;;;;1.75;0.47;;;9.80;80.20;;;;;;5061847;28;20041;-63
2023/11/10 06:57:30;;;;;;;0.40;0.40;;;9.80;80.20;;;;;;5066907;28;20041;-64
2023/11/10 06:59:56;;;;;;;0.40;0.38;;;9.90;80.20;;;;;;5046567;28;20035;-63
2023/11/10 07:02:23;;;;;;;1.10;0.88;;;9.80;80.20;;;;;;5059920;28;20124;-63
2023/11/10 07:04:48;;;;;;;3.25;0.93;;;9.90;80.30;;;;;;5066877;28;20040;-63
2023/11/10 07:07:14;;;;;;;1.00;0.52;;;9.90;80.40;;;;;;5060665;28;20481;-63
2023/11/10 07:09:40;;;;;;;3.30;0.68;;;9.90;80.30;;;;;;5065493;28;20507;-63
2023/11/10 07:12:06;;;;;;;0.98;0.50;;;9.90;80.30;;;;;;5061588;28;20021;-63
2023/11/10 07:14:32;;;;;;;1.15;0.60;;;9.90;80.50;;;;;;5039015;28;20364;-62
2023/11/10 07:16:57;;;;;;;0.75;0.55;;;9.80;80.50;;;;;;5055340;28;20036;-63
2023/11/10 07:19:25;;;;;;;3.97;0.80;;;9.80;80.50;;;;;;5045091;28;20020;-63
2023/11/10 07:21:51;;;;;;;7.00;1.05;;;9.90;80.60;;;;;;5058083;28;20052;-63
2023/11/10 07:24:16;;;;;;;2.15;0.80;;;9.90;80.40;;;;;;5043076;28;20059;-62
2023/11/10 07:26:42;;;;;;;0.55;0.55;;;9.90;80.20;;;;;;5058989;28;20024;-62
2023/11/10 07:29:08;;;;;;;1.05;0.75;;;9.90;80.20;;;;;;5063866;28;20039;-65
2023/11/10 07:31:34;;;;;;;1.90;0.93;;;9.90;80.30;;;;;;5064318;28;20115;-65
2023/11/10 07:33:59;;;;;;;0.70;0.52;;;10.00;80.90;;;;;;5063305;28;20043;-65
2023/11/10 07:36:25;;;;;;;1.90;0.40;;;10.00;80.10;;;;;;5060932;28;20032;-63
2023/11/10 07:38:51;;;;;;;0.52;0.30;;;10.00;80.20;;;;;;5064388;28;20041;-63
2023/11/10 07:41:17;;;;;;;2.22;0.70;;;10.00;80.20;;;;;;5058265;28;20025;-63
2023/11/10 07:43:42;;;;;;;1.38;0.80;;;10.10;80.30;;;;;;5041335;28;20471;-63
2023/11/10 07:46:08;;;;;;;2.25;1.02;;;10.10;80.10;;;;;;5048973;28;20029;-63
2023/11/10 07:48:35;;;;;;;0.73;0.52;;;10.10;80.10;;;;;;5056696;28;20108;-63
2023/11/10 07:51:02;;;;;;;2.92;0.60;;;10.10;80.20;;;;;;5052393;28;20039;-65
2023/11/10 07:53:28;;;;;;;1.85;0.77;;;10.00;80.00;;;;;;5060378;28;20059;-65
2023/11/10 07:55:54;;;;;;;2.05;0.55;;;10.00;80.10;;;;;;5054654;28;20037;-65
2023/11/10 07:58:21;;;;;;;1.05;0.60;;;10.10;80.30;;;;;;5057277;28;20033;-65
2023/11/10 08:00:47;;;;;;;0.70;0.50;;;10.20;80.10;;;;;;5052622;28;20112;-65
2023/11/10 08:03:14;;;;;;;2.28;0.70;;;10.20;79.80;;;;;;5059022;28;20099;-65
2023/11/10 08:05:41;;;;;;;0.50;0.50;;;10.20;80.00;;;;;;5057458;28;20032;-65
2023/11/10 08:08:07;;;;;;;1.58;0.70;;;10.20;80.00;;;;;;5058635;28;20112;-65
2023/11/10 08:10:33;;;;;;;3.35;0.70;;;10.20;79.70;;;;;;5039158;28;20029;-65
2023/11/10 08:12:59;;;;;;;0.40;0.40;;;10.30;79.80;;;;;;5059965;28;20038;-65
2023/11/10 08:15:25;;;;;;;1.48;0.70;;;10.40;79.80;;;;;;5045268;28;20048;-65
2023/11/10 08:17:51;;;;;;;0.73;0.40;;;10.40;79.50;;;;;;5063073;28;20032;-65
2023/11/10 08:20:18;;;;;;;1.17;0.60;;;10.40;79.60;;;;;;5055347;28;20036;-66
2023/11/10 08:22:44;;;;;;;1.08;0.98;;;10.40;79.70;;;;;;5061879;28;20032;-67
2023/11/10 08:25:11;;;;;;;1.95;0.70;;;10.30;79.50;;;;;;5046868;28;20425;-64
2023/11/10 08:27:38;;;;;;;1.02;0.80;;;10.30;79.70;;;;;;5038698;28;20021;-63
2023/11/10 08:30:09;;;;;;;3.53;1.02;;;10.30;79.60;;;;;;5058073;28;20036;-64
2023/11/10 08:32:35;;;;;;;1.33;0.73;;;10.30;79.80;;;;;;5061828;28;20033;-64
2023/11/10 08:35:01;;;;;;;0.80;0.80;;;10.30;79.80;;;;;;5059943;28;20028;-64
2023/11/10 08:37:27;;;;;;;14.35;1.60;;;10.20;79.80;;;;;;5056618;28;20041;-63
2023/11/10 08:39:53;;;;;;;2.15;1.10;;;10.20;79.80;;;;;;5042087;28;20036;-64
2023/11/10 08:42:19;;;;;;;0.70;0.60;;;10.10;80.00;;;;;;5061865;28;20033;-65
2023/11/10 08:44:46;;;;;;;1.42;0.60;;;10.20;80.10;;;;;;5056104;28;20029;-63
2023/11/10 08:47:12;;;;;;;3.88;0.93;;;10.20;80.20;;;;;;5063585;28;20086;-62
2023/11/10 08:49:38;;;;;;;1.73;1.00;;;10.20;80.20;;;;;;5058058;28;20033;-63
2023/11/10 08:52:04;;;;;;;1.27;0.63;;;10.30;80.20;;;;;;5062514;28;20047;-63
2023/11/10 08:54:30;;;;;;;3.78;0.70;;;10.30;80.10;;;;;;5041611;28;20033;-64
2023/11/10 08:56:56;;;;;;;2.20;0.95;;;10.40;80.00;;;;;;5060961;28;20480;-72
2023/11/10 08:59:23;;;;;;;1.35;0.65;;;10.40;79.80;;;;;;5058583;28;20029;-69
2023/11/10 09:01:51;;;;;;;3.80;1.45;;;10.40;79.80;;;;;;5061674;28;20035;-70
2023/11/10 09:04:17;;;;;;;1.50;1.10;;;10.30;79.70;;;;;;5057000;28;20108;-64
2023/11/10 09:06:43;;;;;;;5.55;1.15;;;10.30;80.00;;;;;;5039851;28;20049;-66
2023/11/10 09:09:09;;;;;;;0.75;0.73;;;10.30;80.10;;;;;;5065667;28;20031;-65
2023/11/10 09:11:35;;;;;;;2.30;0.70;;;10.30;80.10;;;;;;5067086;28;20040;-63
2023/11/10 09:14:01;;;;;;;2.13;1.02;;;10.30;80.10;;;;;;5068627;28;20107;-63
2023/11/10 09:16:28;;;;;;;9.10;1.45;;;10.30;79.90;;;;;;5049266;28;20147;-65
2023/11/10 09:18:54;;;;;;;5.95;1.10;;;10.30;79.60;;;;;;5066746;28;20043;-65
2023/11/10 09:21:19;;;;;;;2.47;1.42;;;10.30;79.80;;;;;;5048791;28;20041;-65
2023/11/10 09:23:45;;;;;;;3.28;0.60;;;10.30;79.90;;;;;;5062738;28;20035;-74
2023/11/10 09:26:12;;;;;;;2.38;0.95;;;10.40;79.90;;;;;;5043078;28;20032;-75
2023/11/10 09:28:38;;;;;;;0.57;0.57;;;10.50;80.00;;;;;;5067339;28;20029;-75
2023/11/10 09:31:04;;;;;;;2.15;0.90;;;10.60;79.90;;;;;;5059984;28;20378;-73
2023/11/10 09:33:29;;;;;;;2.90;0.52;;;10.60;79.60;;;;;;5063966;28;20052;-72
2023/11/10 09:35:55;;;;;;;4.30;1.17;;;10.70;79.50;;;;;;5068414;28;20488;-70
2023/11/10 09:38:21;;;;;;;1.58;0.90;;;10.70;79.10;;;;;;5041736;28;20029;-73
2023/11/10 09:40:47;;;;;;;1.63;0.85;;;10.70;79.10;;;;;;5064549;28;20520;-70
2023/11/10 09:43:15;;;;;;;2.50;0.63;;;10.70;78.90;;;;;;5060135;28;20056;-70
2023/11/10 09:45:52;;;;;;;4.18;1.00;;;10.70;79.00;;;;;;5045729;28;20025;-73
2023/11/10 09:48:19;;;;;;;2.60;1.13;;;10.60;78.80;;;;;;5064802;28;20440;-73
2023/11/10 09:50:48;;;;;;;0.77;0.57;;;10.60;79.00;;;;;;5062523;28;20009;-73
2023/11/10 09:53:15;;;;;;;1.88;0.93;;;10.70;78.80;;;;;;5065963;28;20086;-73
2023/11/10 09:55:41;;;;;;;1.75;1.05;;;10.60;79.00;;;;;;5062324;28;20124;-73
2023/11/10 09:58:11;;;;;;;2.78;1.50;;;10.70;79.20;;;;;;5059124;28;20029;-72
2023/11/10 10:00:38;;;;;;;2.05;0.80;;;10.60;79.20;;;;;;5063397;28;20033;-65
2023/11/10 10:03:05;;;;;;;1.83;0.80;;;10.60;79.20;;;;;;5043163;28;20052;-73
2023/11/10 10:05:31;;;;;;;6.28;1.73;;;10.70;79.40;;;;;;5032962;28;20028;-70
2023/11/10 10:07:56;;;;;;;2.92;0.70;;;10.70;79.30;;;;;;5062716;28;20131;-72
2023/11/10 10:10:24;;;;;;;6.55;0.90;;;10.70;79.10;;;;;;5062593;28;20112;-73
2023/11/10 10:12:51;;;;;;;2.22;1.13;;;10.70;79.20;;;;;;5063546;28;20059;-73
2023/11/10 10:15:29;;;;;;;1.75;0.65;;;10.80;79.50;;;;;;5041804;28;20029;-73
2023/11/10 10:17:55;;;;;;;0.68;0.52;;;10.80;79.40;;;;;;5048255;28;20489;-73
2023/11/10 10:20:22;;;;;;;1.98;1.20;;;10.90;79.40;;;;;;5064481;28;20468;-64
2023/11/10 10:22:49;;;;;;;9.57;1.00;;;10.90;79.40;;;;;;5058386;28;20055;-64
2023/11/10 10:25:16;;;;;;;1.50;0.80;;;10.90;79.40;;;;;;5065124;28;20051;-71
2023/11/10 10:27:46;;;;;;;1.25;0.80;;;11.00;79.40;;;;;;5039282;28;20124;-71
2023/11/10 10:30:12;;;;;;;1.05;0.80;;;11.00;79.40;;;;;;5040105;28;20037;-71
2023/11/10 10:32:38;;;;;;;3.83;0.88;;;10.90;79.50;;;;;;5062389;28;20500;-71
2023/11/10 10:35:04;;;;;;;0.73;0.55;;;11.00;80.00;;;;;;5045877;28;20101;-71
2023/11/10 10:37:32;;;;;;;1.77;0.60;;;11.00;79.90;;;;;;5057497;28;20044;-72
2023/11/10 10:40:01;;;;;;;2.17;1.17;;;10.90;79.80;;;;;;5046056;28;20503;-71
2023/11/10 10:42:34;;;;;;;1.00;0.70;;;10.90;79.90;;;;;;5065810;28;20123;-71
2023/11/10 10:45:02;;;;;;;0.77;0.50;;;10.80;80.20;;;;;;5059477;28;20170;-71
2023/11/10 10:47:28;;;;;;;1.40;0.57;;;10.70;80.60;;;;;;5060436;28;20040;-71
2023/11/10 10:49:55;;;;;;;1.25;0.90;;;10.70;81.10;;;;;;5068586;28;20040;-64
2023/11/10 10:52:23;;;;;;;3.63;0.55;;;10.70;81.50;;;;;;5045882;28;20032;-64
2023/11/10 10:54:48;;;;;;;1.05;0.60;;;10.60;81.70;;;;;;5048830;28;20071;-64
2023/11/10 10:57:15;;;;;;;0.57;0.57;;;10.70;81.80;;;;;;5067940;28;20060;-64
2023/11/10 10:59:43;;;;;;;0.80;0.80;;;10.70;81.90;;;;;;5067871;28;20496;-64
2023/11/10 11:02:10;;;;;;;0.88;0.40;;;10.70;82.30;;;;;;5060610;28;20036;-71
2023/11/10 11:05:04;;;;;;;1.83;0.45;;;10.70;82.50;;;;;;5059920;28;20401;-71
2023/11/10 11:07:48;;;;;;;1.17;0.70;;;10.70;82.50;;;;;;5064820;28;20024;-65
2023/11/10 11:10:21;;;;;;;1.67;0.80;;;10.70;82.40;;;;;;5058047;28;20024;-65
2023/11/10 11:12:50;;;;;;;1.00;0.88;;;10.70;82.70;;;;;;5049012;28;20024;-72
2023/11/10 11:15:32;;;;;;;1.05;0.90;;;10.70;82.70;;;;;;5061935;28;20067;-65
2023/11/10 11:18:26;;;;;;;1.33;0.77;;;10.60;83.20;;;;;;5060075;28;20079;-65
2023/11/10 11:20:52;;;;;;;1.00;0.90;;;10.50;82.80;;;;;;5041982;28;20051;-65
2023/11/10 11:23:21;;;;;;;8.30;1.52;;;10.40;83.10;;;;;;5038505;28;20111;-65
2023/11/10 11:25:57;;;;;;;0.95;0.50;;;10.30;83.60;;;;;;5023605;28;20033;-72
2023/11/10 11:28:28;;;;;;;4.45;0.82;;;10.30;83.70;;;;;;5055382;28;20028;-72
2023/11/10 11:31:08;;;;;;;1.45;0.57;;;10.40;83.90;;;;;;5045411;28;20039;-72
2023/11/10 11:33:35;;;;;;;0.63;0.50;;;10.40;83.80;;;;;;5066709;28;20041;-72
2023/11/10 11:36:00;;;;;;;3.60;1.10;;;10.40;83.80;;;;;;5049278;28;20025;-72
2023/11/10 11:38:31;;;;;;;1.38;0.95;;;10.40;83.70;;;;;;5047456;28;20125;-65
2023/11/10 11:41:02;;;;;;;1.95;1.05;;;10.50;83.70;;;;;;5056840;28;20055;-72
2023/11/10 11:43:30;;;;;;;1.98;0.63;;;10.50;83.70;;;;;;5044025;28;20028;-73
2023/11/10 11:45:57;;;;;;;12.20;1.17;;;10.50;83.70;;;;;;5061777;28;20581;-66
2023/11/10 11:48:23;;;;;;;1.30;0.65;;;10.40;83.80;;;;;;5049130;28;20051;-71
2023/11/10 11:50:54;;;;;;;1.05;0.75;;;10.40;84.10;;;;;;5044260;28;20041;-71
2023/11/10 11:53:23;;;;;;;2.97;1.83;;;10.40;84.10;;;;;;5064677;28;20107;-64
2023/11/10 11:55:51;;;;;;;1.33;1.00;;;10.40;84.10;;;;;;5048366;28;20037;-66
2023/11/10 11:58:18;;;;;;;1.25;0.70;;;10.40;84.40;;;;;;5064924;28;20025;-65
2023/11/10 12:00:44;;;;;;;1.20;0.70;;;10.40;84.40;;;;;;5067740;28;20404;-65
2023/11/10 12:03:11;;;;;;;1.70;0.85;;;10.40;84.40;;;;;;5067442;28;20702;-71
2023/11/10 12:05:37;;;;;;;1.23;0.90;;;10.40;84.20;;;;;;5064162;28;20024;-72
2023/11/10 12:08:04;;;;;;;1.35;0.50;;;10.40;84.20;;;;;;5063519;28;20044;-73
2023/11/10 12:10:29;;;;;;;2.38;0.82;;;10.40;84.20;;;;;;5043229;28;20032;-73
2023/11/10 12:12:55;;;;;;;1.92;0.80;;;10.40;84.00;;;;;;5062470;28;20036;-73
2023/11/10 12:15:22;;;;;;;0.40;0.40;;;10.50;83.90;;;;;;5065278;28;20025;-72
2023/11/10 12:17:48;;;;;;;0.98;0.55;;;10.50;83.60;;;;;;5050100;28;20555;-64
2023/11/10 12:20:14;;;;;;;1.67;0.82;;;10.50;83.50;;;;;;5067916;28;20030;-64
2023/11/10 12:22:52;;;;;;;1.13;0.70;;;10.50;83.50;;;;;;5046071;28;20583;-64
2023/11/10 12:25:19;;;;;;;0.88;0.70;;;10.50;83.40;;;;;;5056960;28;20051;-64
2023/11/10 12:27:46;;;;;;;1.02;0.80;;;10.60;83.30;;;;;;5048215;28;20024;-64
2023/11/10 12:30:11;;;;;;;1.25;0.75;;;10.60;83.10;;;;;;5064674;28;20389;-64
2023/11/10 12:32:41;;;;;;;3.67;1.13;;;10.50;82.90;;;;;;5048258;28;20047;-71
2023/11/10 12:35:09;;;;;;;3.42;0.80;;;10.50;82.90;;;;;;5062187;28;20025;-64
2023/11/10 12:37:36;;;;;;;4.82;0.65;;;10.50;82.70;;;;;;5065845;28;20421;-64
2023/11/10 12:40:12;;;;;;;0.95;0.60;;;10.50;82.70;;;;;;5063413;28;20013;-64
2023/11/10 12:42:39;;;;;;;2.40;0.73;;;10.50;82.10;;;;;;5044856;28;20492;-64
2023/11/10 12:45:09;;;;;;;1.92;0.63;;;10.50;82.10;;;;;;5063708;28;20052;-64